Terminal Aerodrome Forecast
Issued by NWS Knoxville/Tri Cities, TN

Home | Current Version | Previous Version | Text Only | Print | Product List | Glossary On
Versions: 1 2 3 4 5 6 7 8 9 10 11 12 13 14 15 16 17 18 19 20 21 22 23 24 25 26 27 28 29 30 31
000
FTUS44 KMRX 270525
TAFTRI
TAF
KTRI 270525Z 2706/2806 20003KT P6SM SCT060 BKN100
     FM270800 VRB03KT 4SM BR SCT025 BKN200
     FM271400 23007KT P6SM SCT020 BKN050
     FM271800 22009KT P6SM BKN250
     FM280000 VRB03KT P6SM BKN250=

USA.gov is the U.S. government's official web portal to all federal, state and local government web resources and services.